Time;durP1;ratioP1;P1;durP2;ratioP2;P2;SDS_P1;SDS_P2;PMS_P1;PMS_P2;Temp;Humidity;BMP_temperature;BMP_pressure;BME280_temperature;BME280_humidity;BME280_pressure;Samples;Min_cycle;Max_cycle;Signal;HPM_P1;HPM_P2
2022/03/31 00:00:33;;;;;;;5.63;3.80;;;;;;;4.50;71.23;100497.66;4935559;28;20042;-54
2022/03/31 00:02:59;;;;;;;6.20;4.10;;;;;;;4.42;71.00;100501.69;4936497;28;20050;-53
2022/03/31 00:05:25;;;;;;;6.20;4.03;;;;;;;4.62;70.75;100498.03;4936529;28;20130;-51
2022/03/31 00:07:53;;;;;;;6.25;4.15;;;;;;;4.60;70.77;100499.69;4938199;28;20141;-55
2022/03/31 00:10:21;;;;;;;6.20;4.20;;;;;;;4.49;70.96;100495.91;4938226;28;20528;-54
2022/03/31 00:12:47;;;;;;;7.30;4.10;;;;;;;4.60;70.39;100499.69;4931958;28;20057;-55
2022/03/31 00:15:12;;;;;;;7.10;4.40;;;;;;;4.40;70.58;100501.63;4929968;28;20262;-52
2022/03/31 00:17:38;;;;;;;8.27;4.32;;;;;;;4.38;71.12;100505.88;4932466;28;20269;-51
2022/03/31 00:20:04;;;;;;;7.35;4.30;;;;;;;4.43;71.29;100512.06;4932218;28;20077;-54
2022/03/31 00:22:29;;;;;;;7.80;4.70;;;;;;;4.35;71.81;100497.16;4933898;28;20042;-52
2022/03/31 00:24:54;;;;;;;5.97;4.00;;;;;;;4.36;72.28;100498.91;4934428;28;20050;-52
2022/03/31 00:27:20;;;;;;;7.43;3.72;;;;;;;4.58;71.94;100493.59;4930916;28;20054;-54
2022/03/31 00:29:45;;;;;;;5.00;3.17;;;;;;;4.47;72.57;100494.97;4940775;28;20051;-52
2022/03/31 00:32:11;;;;;;;6.07;3.33;;;;;;;4.37;72.64;100490.34;4926727;28;20692;-54
2022/03/31 00:34:36;;;;;;;5.72;3.30;;;;;;;4.14;73.41;100484.44;4933605;28;20042;-54
2022/03/31 00:37:02;;;;;;;4.60;2.92;;;;;;;4.41;73.29;100481.88;4935574;28;20113;-54
2022/03/31 00:39:33;;;;;;;4.50;2.88;;;;;;;4.53;72.59;100477.09;4937509;28;20054;-50
2022/03/31 00:42:00;;;;;;;4.68;2.95;;;;;;;4.51;72.73;100491.66;4942504;28;20676;-52
2022/03/31 00:44:26;;;;;;;4.63;2.95;;;;;;;4.57;71.88;100488.41;4932912;28;20061;-51
2022/03/31 00:46:54;;;;;;;4.70;2.80;;;;;;;4.49;71.79;100483.88;4933069;28;20043;-53
2022/03/31 00:49:21;;;;;;;4.88;2.90;;;;;;;4.42;71.89;100479.34;4933974;28;20931;-53
2022/03/31 00:51:51;;;;;;;4.68;2.90;;;;;;;4.44;71.78;100476.81;4935045;28;20217;-51
2022/03/31 00:54:19;;;;;;;5.45;3.20;;;;;;;4.31;72.30;100478.13;4930315;28;20054;-54
2022/03/31 00:56:48;;;;;;;4.32;3.00;;;;;;;4.20;72.36;100482.06;4929952;28;20409;-52
2022/03/31 00:59:14;;;;;;;5.40;3.20;;;;;;;4.26;73.12;100479.69;4941102;28;21042;-51
2022/03/31 01:01:40;;;;;;;5.78;3.10;;;;;;;4.31;72.13;100479.81;4922962;28;20046;-53
2022/03/31 01:04:06;;;;;;;7.72;3.30;;;;;;;4.27;72.21;100470.25;4934078;28;20487;-51
2022/03/31 01:06:32;;;;;;;5.68;3.60;;;;;;;4.28;72.11;100477.13;4921278;28;20075;-55
2022/03/31 01:08:59;;;;;;;5.13;3.20;;;;;;;4.32;72.18;100473.84;4936509;28;20082;-54
2022/03/31 01:11:25;;;;;;;6.60;3.60;;;;;;;4.38;71.47;100474.03;4939326;28;20054;-51
2022/03/31 01:13:51;;;;;;;7.38;3.63;;;;;;;4.25;71.73;100475.34;4936368;28;20054;-54
2022/03/31 01:16:20;;;;;;;6.55;3.78;;;;;;;3.93;72.76;100473.41;4935598;28;20133;-55
2022/03/31 01:18:45;;;;;;;7.55;3.90;;;;;;;4.11;72.24;100460.25;4935656;28;20324;-51
2022/03/31 01:21:10;;;;;;;5.90;3.70;;;;;;;4.15;72.21;100462.97;4937855;28;20047;-54
2022/03/31 01:23:37;;;;;;;6.25;3.40;;;;;;;4.33;71.56;100454.97;4933188;28;20093;-55
2022/03/31 01:26:08;;;;;;;6.90;4.03;;;;;;;4.01;72.44;100459.06;4940168;28;20062;-55
2022/03/31 01:28:35;;;;;;;5.32;3.55;;;;;;;3.99;72.45;100460.72;4933908;28;20062;-54
2022/03/31 01:31:00;;;;;;;6.43;3.85;;;;;;;3.94;72.21;100457.13;4947711;28;20425;-51
2022/03/31 01:33:26;;;;;;;6.63;3.80;;;;;;;4.15;71.73;100457.78;4926352;28;20058;-54
2022/03/31 01:35:51;;;;;;;6.63;4.13;;;;;;;3.78;73.04;100453.13;4933463;28;20066;-55
2022/03/31 01:38:18;;;;;;;8.05;4.43;;;;;;;4.06;72.18;100450.66;4945412;28;20066;-56
2022/03/31 01:40:44;;;;;;;6.18;3.72;;;;;;;4.24;71.78;100434.88;4933160;28;20473;-53
2022/03/31 01:43:09;;;;;;;6.15;4.15;;;;;;;4.18;72.51;100436.41;4938657;28;20043;-54
2022/03/31 01:45:35;;;;;;;7.22;4.10;;;;;;;4.09;72.27;100432.69;4939610;28;20055;-56
2022/03/31 01:48:00;;;;;;;7.75;4.07;;;;;;;4.22;72.56;100433.94;4940439;28;20509;-55
2022/03/31 01:50:26;;;;;;;6.65;4.10;;;;;;;4.21;72.28;100434.78;4935759;28;20051;-54
2022/03/31 01:52:51;;;;;;;7.28;4.50;;;;;;;4.22;71.96;100436.53;4933202;28;20072;-52
2022/03/31 01:55:17;;;;;;;6.97;4.28;;;;;;;4.11;72.31;100435.31;4930587;28;20125;-51
2022/03/31 01:57:42;;;;;;;7.25;4.47;;;;;;;4.15;72.24;100431.16;4941817;28;20596;-53
2022/03/31 02:00:09;;;;;;;7.25;3.90;;;;;;;4.05;71.52;100430.84;4942314;28;20042;-53
2022/03/31 02:02:34;;;;;;;6.32;3.90;;;;;;;3.95;72.41;100431.38;4931379;28;20356;-52
2022/03/31 02:05:00;;;;;;;7.45;4.10;;;;;;;4.12;71.92;100431.03;4931990;28;20053;-54
2022/03/31 02:07:25;;;;;;;6.57;3.97;;;;;;;3.75;73.18;100424.69;4943625;28;20344;-55
2022/03/31 02:09:51;;;;;;;6.68;3.90;;;;;;;4.03;72.36;100418.72;4938155;28;20053;-53
2022/03/31 02:12:16;;;;;;;6.93;3.80;;;;;;;3.65;73.61;100427.78;4941479;28;20046;-55
2022/03/31 02:14:42;;;;;;;8.35;3.85;;;;;;;3.88;73.27;100429.44;4934599;28;20097;-51
2022/03/31 02:17:08;;;;;;;7.63;4.00;;;;;;;4.16;72.90;100427.72;4937075;28;20216;-53
2022/03/31 02:19:35;;;;;;;5.90;3.75;;;;;;;4.25;72.07;100431.47;4935843;28;20317;-55
2022/03/31 02:22:01;;;;;;;7.70;3.88;;;;;;;3.94;72.92;100432.22;4941597;28;20046;-54
2022/03/31 02:24:27;;;;;;;6.60;3.45;;;;;;;4.18;72.57;100426.06;4930140;28;20049;-54
2022/03/31 02:26:52;;;;;;;5.50;3.35;;;;;;;4.30;72.69;100432.50;4931160;28;20073;-51
2022/03/31 02:29:19;;;;;;;9.10;3.83;;;;;;;4.23;72.24;100434.81;4940068;28;20038;-55
2022/03/31 02:31:48;;;;;;;6.43;3.53;;;;;;;3.87;73.67;100429.38;4937857;28;20196;-51
2022/03/31 02:34:17;;;;;;;6.35;3.45;;;;;;;3.98;72.73;100423.72;4942813;28;20043;-53
2022/03/31 02:36:43;;;;;;;6.47;3.17;;;;;;;4.00;73.32;100416.94;4930109;28;20153;-54
2022/03/31 02:39:10;;;;;;;6.78;3.42;;;;;;;3.93;73.51;100417.56;4934606;28;20065;-53
2022/03/31 02:41:36;;;;;;;5.55;3.50;;;;;;;3.80;74.37;100394.78;4939092;28;20093;-53
2022/03/31 02:44:06;;;;;;;7.50;3.33;;;;;;;3.98;72.50;100387.63;4939230;28;20214;-50
2022/03/31 02:46:32;;;;;;;6.85;3.42;;;;;;;4.25;72.73;100399.66;4935407;28;20080;-51
2022/03/31 02:48:58;;;;;;;5.90;3.47;;;;;;;4.13;72.79;100401.84;4936416;28;20094;-51
2022/03/31 02:51:25;;;;;;;6.95;3.72;;;;;;;4.12;72.33;100400.97;4934998;28;20035;-53
2022/03/31 02:56:37;;;;;;;7.03;4.18;;;;;;;4.21;72.61;100390.91;4936246;28;20570;-51
2022/03/31 02:59:04;;;;;;;8.02;4.30;;;;;;;4.28;71.77;100384.25;4931448;28;20047;-53
2022/03/31 03:01:30;;;;;;;6.88;4.50;;;;;;;4.20;72.79;100388.31;4938668;28;20050;-51
2022/03/31 03:03:56;;;;;;;9.05;4.13;;;;;;;4.16;72.16;100377.00;4939291;28;20031;-55
2022/03/31 03:06:21;;;;;;;7.05;3.75;;;;;;;4.41;72.09;100371.75;4936243;28;20461;-52
2022/03/31 03:08:47;;;;;;;6.80;3.78;;;;;;;4.41;72.15;100376.03;4929469;28;20046;-53
2022/03/31 03:11:14;;;;;;;8.20;3.58;;;;;;;4.13;72.11;100373.47;4934007;28;20054;-50
2022/03/31 03:13:39;;;;;;;6.03;3.97;;;;;;;4.19;72.69;100366.78;4941200;28;20163;-50
2022/03/31 03:16:08;;;;;;;10.00;4.30;;;;;;;4.39;72.67;100368.25;4938230;28;20069;-53
2022/03/31 03:18:38;;;;;;;8.45;4.22;;;;;;;4.50;72.15;100363.44;4929698;28;20051;-50
2022/03/31 03:21:04;;;;;;;7.35;4.50;;;;;;;4.43;71.99;100369.25;4939315;28;20066;-54
2022/03/31 03:23:33;;;;;;;8.07;4.60;;;;;;;4.57;71.84;100372.22;4938738;28;20154;-50
2022/03/31 03:26:01;;;;;;;9.20;4.82;;;;;;;4.65;71.31;100371.59;4932432;28;20074;-52
2022/03/31 03:28:29;;;;;;;9.50;5.07;;;;;;;4.49;72.29;100372.88;4934492;28;20535;-51
2022/03/31 03:30:54;;;;;;;9.20;5.15;;;;;;;4.45;72.47;100371.00;4931383;28;20145;-50
2022/03/31 03:33:19;;;;;;;11.18;5.60;;;;;;;4.30;72.53;100380.00;4937400;28;20051;-53
2022/03/31 03:35:45;;;;;;;11.60;6.05;;;;;;;4.64;71.70;100377.59;4934700;28;20543;-53
2022/03/31 03:38:11;;;;;;;10.18;5.35;;;;;;;4.69;72.03;100375.16;4940685;28;20117;-51
2022/03/31 03:40:36;;;;;;;11.07;5.47;;;;;;;4.78;71.45;100375.41;4925438;28;20133;-52
2022/03/31 03:43:01;;;;;;;9.40;5.43;;;;;;;4.33;72.50;100378.38;4935154;28;20042;-54
2022/03/31 03:45:27;;;;;;;9.57;4.90;;;;;;;4.49;72.05;100369.41;4931627;28;20117;-55
2022/03/31 03:47:52;;;;;;;9.75;5.15;;;;;;;4.68;71.90;100368.25;4937354;28;20614;-54
2022/03/31 03:50:18;;;;;;;8.45;4.50;;;;;;;4.67;72.04;100369.94;4933244;28;20492;-51
2022/03/31 03:52:44;;;;;;;8.27;4.40;;;;;;;4.83;72.00;100360.91;4930094;28;20508;-51
2022/03/31 03:55:11;;;;;;;8.73;4.30;;;;;;;4.96;71.46;100354.38;4933339;28;20075;-51
2022/03/31 03:57:37;;;;;;;6.95;4.00;;;;;;;4.95;71.93;100357.81;4932712;28;20461;-52
2022/03/31 04:00:04;;;;;;;8.20;4.10;;;;;;;4.94;71.94;100356.06;4932220;28;20239;-53
2022/03/31 04:02:29;;;;;;;6.95;4.10;;;;;;;4.97;71.95;100367.34;4934549;28;20039;-52
2022/03/31 04:04:54;;;;;;;6.40;4.00;;;;;;;4.88;72.00;100372.25;4935741;28;20046;-57
2022/03/31 04:07:20;;;;;;;6.25;3.90;;;;;;;4.76;71.85;100366.75;4938807;28;20039;-50
2022/03/31 04:09:46;;;;;;;6.65;4.03;;;;;;;4.84;71.79;100367.84;4928794;28;20047;-54
2022/03/31 04:12:11;;;;;;;5.78;3.75;;;;;;;4.99;71.83;100351.91;4934616;28;20081;-56
2022/03/31 04:14:37;;;;;;;6.60;4.05;;;;;;;5.15;70.97;100361.81;4930788;28;20044;-52
2022/03/31 04:17:02;;;;;;;7.25;3.97;;;;;;;5.05;71.34;100363.28;4938094;28;20141;-53
2022/03/31 04:19:28;;;;;;;7.95;4.10;;;;;;;5.12;71.49;100360.00;4932245;28;20463;-50
2022/03/31 04:21:53;;;;;;;8.48;4.20;;;;;;;5.13;71.05;100363.47;4938488;28;20042;-54
2022/03/31 04:24:19;;;;;;;7.28;4.07;;;;;;;4.98;71.43;100360.47;4937504;28;20714;-53
2022/03/31 04:26:44;;;;;;;9.77;4.40;;;;;;;4.92;71.71;100355.16;4927433;28;20265;-49
2022/03/31 04:29:10;;;;;;;7.55;4.35;;;;;;;5.11;71.24;100353.13;4937985;28;20070;-50
2022/03/31 04:31:43;;;;;;;8.35;4.25;;;;;;;5.14;71.29;100357.47;4935400;28;20562;-51
2022/03/31 04:34:15;;;;;;;8.35;4.22;;;;;;;5.03;71.65;100358.91;4940549;28;20046;-54
2022/03/31 04:36:40;;;;;;;8.00;4.78;;;;;;;5.04;70.97;100351.19;4920986;28;20047;-55
2022/03/31 04:39:06;;;;;;;9.20;4.28;;;;;;;5.16;71.04;100358.41;4939152;28;20049;-55
2022/03/31 04:41:32;;;;;;;9.88;4.25;;;;;;;5.15;70.60;100348.88;4940600;28;20513;-54
2022/03/31 04:43:58;;;;;;;9.02;4.75;;;;;;;4.99;71.02;100342.44;4936669;28;20053;-54
2022/03/31 04:46:23;;;;;;;8.30;4.40;;;;;;;5.12;70.51;100347.09;4935547;28;20382;-54
2022/03/31 04:48:48;;;;;;;7.35;4.45;;;;;;;5.02;70.75;100341.63;4932305;28;20055;-50
2022/03/31 04:51:14;;;;;;;8.10;4.50;;;;;;;5.09;71.31;100341.84;4933706;28;20135;-53
2022/03/31 04:53:39;;;;;;;10.70;4.93;;;;;;;5.17;70.94;100335.19;4932119;28;20126;-51
2022/03/31 04:56:05;;;;;;;8.75;4.50;;;;;;;5.21;70.20;100343.88;4939654;28;20552;-53
2022/03/31 04:58:30;;;;;;;9.13;4.38;;;;;;;5.15;70.54;100351.47;4921302;28;20134;-56
2022/03/31 05:00:56;;;;;;;7.55;4.50;;;;;;;5.22;70.18;100348.22;4931859;28;20046;-51
2022/03/31 05:03:22;;;;;;;11.60;4.85;;;;;;;5.05;71.15;100358.13;4936776;28;20071;-51
2022/03/31 05:05:47;;;;;;;9.27;4.80;;;;;;;5.13;70.40;100350.53;4938998;28;20054;-52
2022/03/31 05:08:13;;;;;;;9.57;5.10;;;;;;;5.25;70.01;100349.16;4926358;28;20518;-53
2022/03/31 05:10:38;;;;;;;8.55;5.10;;;;;;;5.25;70.45;100345.69;4930757;28;20054;-51
2022/03/31 05:13:04;;;;;;;8.30;5.00;;;;;;;5.30;70.06;100345.00;4937054;28;20050;-53
2022/03/31 05:15:30;;;;;;;8.27;4.57;;;;;;;5.22;70.44;100343.94;4934461;28;20266;-51
2022/03/31 05:17:55;;;;;;;10.18;4.72;;;;;;;5.30;70.11;100334.69;4920439;28;20098;-51
2022/03/31 05:20:22;;;;;;;12.40;4.72;;;;;;;5.23;70.69;100340.53;4936337;28;20721;-53
2022/03/31 05:22:47;;;;;;;9.93;4.88;;;;;;;5.16;70.58;100342.91;4920531;28;20884;-51
2022/03/31 05:25:13;;;;;;;10.43;4.90;;;;;;;5.21;70.67;100347.34;4941298;28;20055;-52
2022/03/31 05:27:44;;;;;;;9.48;4.95;;;;;;;5.16;70.76;100345.47;4934238;28;20357;-52
2022/03/31 05:30:12;;;;;;;9.35;5.30;;;;;;;5.12;71.02;100341.91;4931542;28;20062;-50
2022/03/31 05:32:37;;;;;;;10.15;4.97;;;;;;;5.28;70.21;100349.25;4927801;28;20039;-51
2022/03/31 05:35:03;;;;;;;9.02;5.35;;;;;;;5.14;70.41;100342.84;4932714;28;20592;-53
2022/03/31 05:37:28;;;;;;;12.68;5.47;;;;;;;5.17;70.56;100342.06;4935057;28;20074;-50
2022/03/31 05:39:54;;;;;;;12.35;5.40;;;;;;;5.10;70.62;100334.97;4935845;28;20054;-50
2022/03/31 05:42:19;;;;;;;9.63;5.25;;;;;;;5.19;70.53;100332.63;4931546;28;20057;-56
2022/03/31 05:44:44;;;;;;;11.60;5.60;;;;;;;5.25;70.54;100330.19;4925170;28;20656;-56
2022/03/31 05:47:10;;;;;;;10.88;5.47;;;;;;;5.06;70.57;100335.75;4933891;28;20046;-51
2022/03/31 05:49:35;;;;;;;12.07;5.40;;;;;;;5.00;70.89;100333.00;4938165;28;20686;-50
2022/03/31 05:52:01;;;;;;;11.82;5.82;;;;;;;5.14;70.82;100326.47;4935648;28;20135;-53
2022/03/31 05:54:26;;;;;;;13.23;5.40;;;;;;;5.07;70.95;100327.13;4922979;28;20039;-51
2022/03/31 05:56:56;;;;;;;14.10;5.85;;;;;;;5.10;70.91;100330.69;4929634;28;20098;-53
2022/03/31 05:59:22;;;;;;;11.10;6.07;;;;;;;5.23;70.23;100325.00;4932576;28;20058;-54
2022/03/31 06:01:47;;;;;;;14.80;6.28;;;;;;;5.17;70.66;100327.44;4926294;28;20046;-53
2022/03/31 06:04:16;;;;;;;13.50;6.18;;;;;;;5.16;71.00;100332.56;4938961;28;20050;-51
2022/03/31 06:06:41;;;;;;;10.70;5.72;;;;;;;4.97;70.71;100323.44;4935670;28;20509;-55
2022/03/31 06:09:07;;;;;;;13.10;6.00;;;;;;;5.18;70.54;100326.59;4932914;28;20142;-55
2022/03/31 06:11:32;;;;;;;10.38;5.65;;;;;;;5.23;70.68;100318.97;4940847;28;20157;-53
2022/03/31 06:13:57;;;;;;;10.50;5.70;;;;;;;5.29;70.29;100330.34;4938967;28;20078;-54
2022/03/31 06:16:23;;;;;;;9.57;5.15;;;;;;;5.22;70.80;100322.38;4927583;28;20055;-51
2022/03/31 06:18:48;;;;;;;12.55;5.60;;;;;;;5.33;70.01;100323.53;4928315;28;20435;-52
2022/03/31 06:21:13;;;;;;;9.30;5.35;;;;;;;5.60;69.35;100331.09;4938283;28;20124;-53
2022/03/31 06:23:39;;;;;;;11.93;5.35;;;;;;;5.66;69.36;100324.38;4932719;28;20265;-54
2022/03/31 06:26:04;;;;;;;9.00;5.07;;;;;;;5.85;69.24;100329.97;4938837;28;20406;-51
2022/03/31 06:28:31;;;;;;;9.98;5.18;;;;;;;5.60;69.24;100331.97;4937809;28;20045;-54
2022/03/31 06:30:56;;;;;;;9.30;4.68;;;;;;;5.84;69.60;100333.41;4931052;28;20323;-52
2022/03/31 06:33:22;;;;;;;9.52;5.10;;;;;;;5.76;68.89;100333.22;4932543;28;20043;-54
2022/03/31 06:35:49;;;;;;;7.55;4.68;;;;;;;5.78;69.25;100333.25;4943356;28;20033;-52
2022/03/31 06:38:15;;;;;;;8.35;4.82;;;;;;;5.69;69.11;100333.91;4937862;28;20046;-54
2022/03/31 06:40:41;;;;;;;9.45;4.65;;;;;;;5.79;68.90;100342.78;4931126;28;20046;-52
2022/03/31 06:43:07;;;;;;;11.98;4.75;;;;;;;5.65;69.29;100345.03;4935882;28;20042;-54
2022/03/31 06:45:34;;;;;;;9.85;4.35;;;;;;;5.85;69.04;100341.22;4927918;28;20074;-51
2022/03/31 06:48:01;;;;;;;11.07;4.75;;;;;;;5.92;69.51;100342.22;4935525;28;20513;-51
2022/03/31 06:50:28;;;;;;;9.30;4.35;;;;;;;6.11;69.24;100347.00;4930174;28;20230;-52
2022/03/31 06:52:56;;;;;;;11.50;4.53;;;;;;;6.34;69.26;100334.59;4930654;28;20050;-54
2022/03/31 06:55:22;;;;;;;10.43;4.65;;;;;;;6.47;69.19;100331.41;4930775;28;20082;-54
2022/03/31 06:57:47;;;;;;;9.80;4.70;;;;;;;6.32;68.46;100329.38;4933760;28;20046;-53
2022/03/31 07:00:13;;;;;;;8.30;3.80;;;;;;;6.53;67.93;100328.94;4938166;28;20050;-51
2022/03/31 07:02:39;;;;;;;11.77;4.45;;;;;;;6.67;67.96;100327.50;4937364;28;20137;-51
2022/03/31 07:05:04;;;;;;;8.82;3.90;;;;;;;6.57;67.18;100324.72;4926577;28;20606;-55
2022/03/31 07:07:30;;;;;;;8.55;3.92;;;;;;;6.74;67.30;100324.19;4934822;28;20109;-53
2022/03/31 07:09:57;;;;;;;6.95;3.88;;;;;;;6.75;66.84;100328.53;4938270;28;20503;-53
2022/03/31 07:12:25;;;;;;;6.65;3.72;;;;;;;6.63;67.23;100330.00;4931381;28;20034;-55
2022/03/31 07:14:51;;;;;;;9.07;3.80;;;;;;;6.92;66.96;100334.94;4932147;28;20042;-50
2022/03/31 07:17:17;;;;;;;13.98;3.45;;;;;;;6.90;66.65;100323.66;4935439;28;20078;-54
2022/03/31 07:19:42;;;;;;;6.88;3.72;;;;;;;6.75;67.09;100325.09;4933819;28;20034;-54
2022/03/31 07:22:07;;;;;;;5.78;3.70;;;;;;;7.07;66.08;100331.78;4938171;28;20081;-50
2022/03/31 07:24:33;;;;;;;13.38;3.85;;;;;;;7.36;65.27;100334.00;4937112;28;20042;-52
2022/03/31 07:26:58;;;;;;;6.22;3.83;;;;;;;7.30;65.13;100334.78;4927143;28;20074;-55
2022/03/31 07:29:25;;;;;;;6.63;3.70;;;;;;;7.68;64.91;100336.28;4928943;28;20205;-53
2022/03/31 07:31:51;;;;;;;7.28;3.92;;;;;;;7.68;64.20;100332.84;4933458;28;20043;-54
2022/03/31 07:34:16;;;;;;;7.85;4.25;;;;;;;7.40;64.68;100331.47;4936624;28;20452;-55
2022/03/31 07:36:42;;;;;;;8.60;4.03;;;;;;;7.40;64.40;100331.47;4936047;28;20046;-53
2022/03/31 07:39:08;;;;;;;7.00;4.10;;;;;;;7.11;64.97;100327.50;4930822;28;20043;-54
2022/03/31 07:41:33;;;;;;;8.00;4.30;;;;;;;6.81;65.72;100325.19;4933908;28;20578;-54
2022/03/31 07:44:09;;;;;;;8.73;4.25;;;;;;;6.41;65.91;100323.50;4936933;28;20046;-52
2022/03/31 07:46:35;;;;;;;7.60;4.82;;;;;;;6.72;65.77;100331.06;4916944;28;20498;-52
2022/03/31 07:49:00;;;;;;;10.50;6.55;;;;;;;5.92;67.43;100327.59;4928925;28;20050;-56
2022/03/31 07:51:26;;;;;;;11.52;6.93;;;;;;;5.85;68.58;100336.03;4940165;28;20051;-53
2022/03/31 07:53:52;;;;;;;9.55;6.25;;;;;;;6.24;67.41;100330.03;4939289;28;20062;-55
2022/03/31 07:56:18;;;;;;;8.48;5.05;;;;;;;5.77;67.91;100329.78;4925250;28;20042;-55
2022/03/31 07:58:43;;;;;;;10.05;5.00;;;;;;;5.86;68.67;100329.13;4927943;28;20047;-54
2022/03/31 08:01:08;;;;;;;8.55;5.18;;;;;;;6.25;67.92;100327.47;4932031;28;20368;-53
2022/03/31 08:03:34;;;;;;;7.15;4.45;;;;;;;6.48;67.37;100322.78;4940855;28;20170;-54
2022/03/31 08:06:00;;;;;;;7.60;4.70;;;;;;;7.09;66.26;100318.81;4931726;28;20126;-52
2022/03/31 08:08:25;;;;;;;7.15;4.40;;;;;;;7.53;65.68;100309.22;4931111;28;20137;-54
2022/03/31 08:10:51;;;;;;;9.13;3.83;;;;;;;7.78;64.00;100313.09;4926922;28;20046;-55
2022/03/31 08:13:27;;;;;;;7.60;4.00;;;;;;;7.91;62.21;100307.25;4935154;28;20039;-53
2022/03/31 08:15:54;;;;;;;6.85;3.60;;;;;;;8.19;61.98;100309.38;4931302;28;20061;-54
2022/03/31 08:18:25;;;;;;;5.47;3.70;;;;;;;8.21;61.57;100317.19;4935084;28;20327;-53
2022/03/31 08:20:53;;;;;;;5.93;3.83;;;;;;;7.49;63.04;100321.28;4922618;28;20108;-51
2022/03/31 08:23:18;;;;;;;8.35;4.00;;;;;;;7.48;61.86;100318.66;4932909;28;20073;-52
2022/03/31 08:25:44;;;;;;;5.00;3.75;;;;;;;8.19;61.60;100311.97;4950686;28;20364;-54
2022/03/31 08:28:09;;;;;;;7.30;4.15;;;;;;;8.36;61.28;100305.31;4935721;28;20054;-54
2022/03/31 08:30:35;;;;;;;8.30;4.13;;;;;;;8.92;61.63;100302.50;4933765;28;20366;-51
2022/03/31 08:33:00;;;;;;;7.05;4.22;;;;;;;8.54;59.28;100302.94;4925879;28;20121;-53
2022/03/31 08:35:28;;;;;;;6.65;4.28;;;;;;;8.24;59.77;100309.44;4932817;28;20056;-53
2022/03/31 08:37:54;;;;;;;8.45;4.63;;;;;;;8.25;60.13;100317.25;4929800;28;20043;-57
2022/03/31 08:40:20;;;;;;;7.50;4.50;;;;;;;8.30;60.53;100317.28;4936078;28;20918;-51
2022/03/31 08:42:46;;;;;;;5.97;4.03;;;;;;;7.86;60.74;100319.28;4931652;28;20161;-54
2022/03/31 08:45:14;;;;;;;9.07;4.50;;;;;;;8.43;61.01;100319.25;4937082;28;20344;-53
2022/03/31 08:47:40;;;;;;;7.30;4.32;;;;;;;8.67;60.03;100310.88;4935396;28;20639;-53
2022/03/31 08:50:07;;;;;;;8.43;4.50;;;;;;;8.42;60.27;100314.91;4936173;28;20355;-53
2022/03/31 08:52:32;;;;;;;6.70;3.92;;;;;;;7.90;60.00;100319.34;4936761;28;20047;-54
2022/03/31 08:54:57;;;;;;;5.50;3.50;;;;;;;7.46;60.63;100309.97;4920615;28;20526;-54
2022/03/31 08:57:25;;;;;;;5.63;3.72;;;;;;;7.01;61.79;100310.03;4935289;28;20075;-53
2022/03/31 08:59:51;;;;;;;5.93;3.70;;;;;;;7.34;61.21;100306.31;4937552;28;20579;-55
2022/03/31 09:02:26;;;;;;;6.13;3.90;;;;;;;7.73;60.61;100303.53;4936456;28;20035;-55
2022/03/31 09:05:03;;;;;;;6.20;3.97;;;;;;;7.73;60.41;100307.84;4925868;28;20462;-54
2022/03/31 09:07:29;;;;;;;5.95;4.00;;;;;;;8.07;60.57;100306.59;4934330;28;20039;-54
2022/03/31 09:09:54;;;;;;;5.72;3.95;;;;;;;7.79;60.75;100307.94;4933419;28;20051;-55
2022/03/31 09:12:19;;;;;;;5.25;3.55;;;;;;;7.89;61.10;100315.00;4933970;28;20076;-54
2022/03/31 09:14:45;;;;;;;5.47;3.67;;;;;;;7.20;60.64;100305.19;4926407;28;20518;-53
2022/03/31 09:17:12;;;;;;;4.93;3.40;;;;;;;7.70;61.04;100306.06;4934244;28;20047;-55
2022/03/31 09:19:38;;;;;;;4.65;3.30;;;;;;;7.27;60.75;100309.66;4932402;28;20373;-57
2022/03/31 09:22:04;;;;;;;5.40;3.50;;;;;;;7.45;60.41;100311.69;4933277;28;20325;-54
2022/03/31 09:24:33;;;;;;;4.93;3.35;;;;;;;7.40;60.47;100310.72;4936049;28;20502;-54
2022/03/31 09:27:01;;;;;;;5.07;3.40;;;;;;;7.43;61.21;100318.59;4930551;28;20145;-54
2022/03/31 09:29:28;;;;;;;4.95;3.47;;;;;;;7.46;61.59;100312.56;4934765;28;20070;-53
2022/03/31 09:32:09;;;;;;;4.30;2.90;;;;;;;7.68;60.06;100312.94;4926208;28;20059;-56
2022/03/31 09:34:43;;;;;;;4.72;3.00;;;;;;;7.99;59.60;100310.84;4936281;28;20074;-54
2022/03/31 09:37:09;;;;;;;5.35;3.20;;;;;;;7.56;59.45;100314.47;4928587;28;20170;-56
2022/03/31 09:39:35;;;;;;;4.53;3.03;;;;;;;7.46;60.57;100315.16;4936603;28;20161;-53
2022/03/31 09:42:00;;;;;;;4.35;3.10;;;;;;;7.64;59.54;100316.34;4935176;28;20047;-56
2022/03/31 09:44:26;;;;;;;4.82;3.35;;;;;;;7.75;59.74;100317.38;4930885;28;20053;-54
2022/03/31 09:46:55;;;;;;;5.18;3.33;;;;;;;7.66;60.44;100313.75;4927115;28;20776;-54
2022/03/31 09:49:21;;;;;;;5.90;3.30;;;;;;;7.86;60.63;100303.72;4940389;28;20051;-56
2022/03/31 09:51:58;;;;;;;4.90;3.38;;;;;;;8.16;60.06;100293.75;4936011;28;20485;-52
2022/03/31 09:54:26;;;;;;;4.45;3.33;;;;;;;8.75;59.67;100294.53;4933823;28;20043;-52
2022/03/31 09:56:53;;;;;;;6.00;3.60;;;;;;;8.90;58.65;100296.44;4929385;28;20046;-55
2022/03/31 09:59:18;;;;;;;5.20;3.20;;;;;;;8.94;56.03;100301.69;4939785;28;20442;-53
2022/03/31 10:01:44;;;;;;;4.80;3.20;;;;;;;9.22;55.52;100292.44;4940284;28;20055;-53
2022/03/31 10:04:12;;;;;;;4.82;3.50;;;;;;;9.38;56.22;100297.78;4938184;28;20362;-52
2022/03/31 10:06:42;;;;;;;5.05;3.40;;;;;;;9.41;55.65;100301.28;4932924;28;20070;-52
2022/03/31 10:09:09;;;;;;;4.82;3.22;;;;;;;9.01;55.05;100287.03;4934825;28;20054;-54
2022/03/31 10:11:38;;;;;;;6.32;3.50;;;;;;;8.61;55.75;100284.81;4935765;28;20335;-54
2022/03/31 10:14:15;;;;;;;5.10;3.47;;;;;;;8.98;55.68;100276.59;4934897;28;20042;-54
2022/03/31 10:16:48;;;;;;;6.45;3.72;;;;;;;9.44;54.71;100280.50;4920416;28;20046;-55
2022/03/31 10:19:36;;;;;;;5.93;3.63;;;;;;;9.67;55.33;100273.75;4942414;28;20305;-57
2022/03/31 10:22:09;;;;;;;5.15;3.55;;;;;;;9.62;52.88;100265.03;4934291;28;20069;-57
2022/03/31 10:24:42;;;;;;;5.70;3.50;;;;;;;9.93;53.52;100266.13;4935287;28;20511;-54
2022/03/31 10:27:10;;;;;;;4.80;3.50;;;;;;;10.33;53.85;100269.81;4934465;28;20051;-52
2022/03/31 10:29:45;;;;;;;5.30;3.65;;;;;;;10.49;53.03;100270.78;4932459;28;20127;-61
2022/03/31 10:32:22;;;;;;;5.72;4.07;;;;;;;10.27;52.42;100264.59;4928707;28;20074;-51
2022/03/31 10:34:49;;;;;;;4.60;3.40;;;;;;;10.22;51.94;100265.44;4939558;28;20039;-57
2022/03/31 10:37:34;;;;;;;4.10;3.25;;;;;;;10.22;51.38;100261.09;4934906;28;20022;-54
2022/03/31 10:40:01;;;;;;;4.78;3.35;;;;;;;10.23;49.84;100257.63;4933724;28;20433;-54
2022/03/31 10:42:27;;;;;;;5.78;3.50;;;;;;;9.98;51.03;100261.81;4935285;28;20043;-53
2022/03/31 10:45:07;;;;;;;4.60;3.50;;;;;;;9.90;50.78;100257.41;4937730;28;20043;-53
2022/03/31 10:47:39;;;;;;;4.80;3.58;;;;;;;9.98;51.29;100254.00;4925446;28;20042;-53
2022/03/31 10:50:07;;;;;;;4.22;3.30;;;;;;;10.28;50.87;100255.03;4931286;28;20134;-55
2022/03/31 10:52:32;;;;;;;5.18;3.30;;;;;;;10.34;50.17;100255.94;4937074;28;20051;-52
2022/03/31 10:55:32;;;;;;;6.57;3.38;;;;;;;10.62;50.20;100250.81;4935963;28;20043;-51
2022/03/31 10:57:57;;;;;;;5.10;3.55;;;;;;;10.09;50.19;100247.09;4939107;28;20047;-54
2022/03/31 11:00:22;;;;;;;4.55;3.50;;;;;;;10.00;50.19;100244.44;4930670;28;20043;-54
2022/03/31 11:02:52;;;;;;;5.38;3.50;;;;;;;10.30;50.98;100250.72;4941443;28;20169;-54
2022/03/31 11:05:21;;;;;;;5.20;3.60;;;;;;;10.35;50.02;100246.41;4934987;28;20057;-53
2022/03/31 11:07:48;;;;;;;4.70;3.42;;;;;;;10.29;50.65;100239.44;4933645;28;20573;-55
2022/03/31 11:10:15;;;;;;;5.40;3.88;;;;;;;10.06;50.23;100246.22;4941011;28;20047;-53
2022/03/31 11:12:42;;;;;;;5.20;3.72;;;;;;;10.44;50.97;100249.91;4938034;28;20660;-54
2022/03/31 11:15:10;;;;;;;5.32;3.70;;;;;;;9.79;51.72;100241.72;4940193;28;20410;-54
2022/03/31 11:17:37;;;;;;;5.75;3.80;;;;;;;9.69;53.12;100246.00;4934109;28;20611;-58
2022/03/31 11:20:14;;;;;;;5.63;3.78;;;;;;;9.84;52.85;100242.59;4941532;28;20052;-54
2022/03/31 11:22:47;;;;;;;6.85;4.00;;;;;;;9.88;52.84;100238.31;4948409;28;20101;-55
2022/03/31 11:25:13;;;;;;;6.00;4.22;;;;;;;9.67;52.41;100242.50;4938445;28;20039;-54
2022/03/31 11:27:41;;;;;;;6.00;4.30;;;;;;;9.32;53.26;100247.47;4923385;28;20054;-53
2022/03/31 11:30:09;;;;;;;5.88;4.13;;;;;;;9.51;53.87;100237.19;4939026;28;20468;-55
2022/03/31 11:32:36;;;;;;;6.93;4.10;;;;;;;9.11;52.92;100231.66;4943825;28;20046;-55